sensor_id;sensor_type;location;lat;lon;timestamp;P1;durP1;ratioP1;P2;durP2;ratioP2
8913;SDS011;4492;48.736;9.092;2023-09-19T00:01:07;1.23;;;1.00;;
8913;SDS011;4492;48.736;9.092;2023-09-19T00:03:34;1.10;;;1.00;;
8913;SDS011;4492;48.736;9.092;2023-09-19T00:06:02;2.03;;;1.00;;
8913;SDS011;4492;48.736;9.092;2023-09-19T00:08:29;1.50;;;1.00;;
8913;SDS011;4492;48.736;9.092;2023-09-19T00:10:55;1.07;;;0.97;;
8913;SDS011;4492;48.736;9.092;2023-09-19T00:13:21;1.47;;;1.03;;
8913;SDS011;4492;48.736;9.092;2023-09-19T00:15:47;3.17;;;1.30;;
8913;SDS011;4492;48.736;9.092;2023-09-19T00:18:16;1.83;;;1.30;;
8913;SDS011;4492;48.736;9.092;2023-09-19T00:20:53;1.87;;;1.00;;
8913;SDS011;4492;48.736;9.092;2023-09-19T00:23:22;1.37;;;1.07;;
8913;SDS011;4492;48.736;9.092;2023-09-19T00:25:49;1.33;;;0.80;;
8913;SDS011;4492;48.736;9.092;2023-09-19T00:28:15;2.40;;;1.00;;
8913;SDS011;4492;48.736;9.092;2023-09-19T00:30:42;2.10;;;1.00;;
8913;SDS011;4492;48.736;9.092;2023-09-19T00:33:08;1.30;;;0.90;;
8913;SDS011;4492;48.736;9.092;2023-09-19T00:35:36;1.10;;;1.00;;
8913;SDS011;4492;48.736;9.092;2023-09-19T00:38:02;2.20;;;1.13;;
8913;SDS011;4492;48.736;9.092;2023-09-19T00:40:28;1.43;;;0.97;;
8913;SDS011;4492;48.736;9.092;2023-09-19T00:42:57;1.10;;;1.00;;
8913;SDS011;4492;48.736;9.092;2023-09-19T00:45:25;1.17;;;0.93;;
8913;SDS011;4492;48.736;9.092;2023-09-19T00:47:51;1.03;;;0.90;;
8913;SDS011;4492;48.736;9.092;2023-09-19T00:50:19;0.80;;;0.70;;
8913;SDS011;4492;48.736;9.092;2023-09-19T00:52:48;1.33;;;0.93;;
8913;SDS011;4492;48.736;9.092;2023-09-19T00:55:15;4.10;;;0.90;;
8913;SDS011;4492;48.736;9.092;2023-09-19T00:57:44;3.27;;;1.00;;
8913;SDS011;4492;48.736;9.092;2023-09-19T01:00:10;1.30;;;0.83;;
8913;SDS011;4492;48.736;9.092;2023-09-19T01:02:40;2.60;;;0.90;;
8913;SDS011;4492;48.736;9.092;2023-09-19T01:05:09;1.17;;;0.70;;
8913;SDS011;4492;48.736;9.092;2023-09-19T01:07:35;3.00;;;0.77;;
8913;SDS011;4492;48.736;9.092;2023-09-19T01:10:04;0.83;;;0.77;;
8913;SDS011;4492;48.736;9.092;2023-09-19T01:18:21;1.83;;;0.90;;
8913;SDS011;4492;48.736;9.092;2023-09-19T01:21:08;0.90;;;0.90;;
8913;SDS011;4492;48.736;9.092;2023-09-19T01:26:44;0.80;;;0.70;;
8913;SDS011;4492;48.736;9.092;2023-09-19T01:29:46;1.07;;;0.80;;
8913;SDS011;4492;48.736;9.092;2023-09-19T01:32:16;2.33;;;0.83;;
8913;SDS011;4492;48.736;9.092;2023-09-19T01:34:50;0.80;;;0.70;;
8913;SDS011;4492;48.736;9.092;2023-09-19T01:37:18;2.00;;;0.70;;
8913;SDS011;4492;48.736;9.092;2023-09-19T01:39:48;2.80;;;0.70;;
8913;SDS011;4492;48.736;9.092;2023-09-19T01:47:37;1.80;;;0.90;;
8913;SDS011;4492;48.736;9.092;2023-09-19T01:50:27;1.30;;;0.87;;
8913;SDS011;4492;48.736;9.092;2023-09-19T01:52:59;1.40;;;0.80;;
8913;SDS011;4492;48.736;9.092;2023-09-19T01:55:53;1.20;;;0.90;;
8913;SDS011;4492;48.736;9.092;2023-09-19T01:58:21;2.40;;;1.03;;
8913;SDS011;4492;48.736;9.092;2023-09-19T02:01:02;1.10;;;1.00;;
8913;SDS011;4492;48.736;9.092;2023-09-19T02:03:31;1.27;;;0.80;;
8913;SDS011;4492;48.736;9.092;2023-09-19T02:05:58;0.70;;;0.70;;
8913;SDS011;4492;48.736;9.092;2023-09-19T02:08:24;0.87;;;0.67;;
8913;SDS011;4492;48.736;9.092;2023-09-19T02:10:49;0.93;;;0.80;;
8913;SDS011;4492;48.736;9.092;2023-09-19T02:13:16;0.70;;;0.70;;
8913;SDS011;4492;48.736;9.092;2023-09-19T02:15:42;2.47;;;0.87;;
8913;SDS011;4492;48.736;9.092;2023-09-19T02:18:09;0.93;;;0.70;;
8913;SDS011;4492;48.736;9.092;2023-09-19T02:20:36;1.23;;;0.70;;
8913;SDS011;4492;48.736;9.092;2023-09-19T02:23:02;1.00;;;0.73;;
8913;SDS011;4492;48.736;9.092;2023-09-19T02:25:28;1.33;;;0.80;;
8913;SDS011;4492;48.736;9.092;2023-09-19T02:27:54;0.90;;;0.90;;
8913;SDS011;4492;48.736;9.092;2023-09-19T02:30:22;1.33;;;0.70;;
8913;SDS011;4492;48.736;9.092;2023-09-19T02:32:50;1.40;;;0.73;;
8913;SDS011;4492;48.736;9.092;2023-09-19T02:35:16;1.23;;;0.77;;
8913;SDS011;4492;48.736;9.092;2023-09-19T02:37:44;0.60;;;0.60;;
8913;SDS011;4492;48.736;9.092;2023-09-19T02:40:10;0.97;;;0.70;;
8913;SDS011;4492;48.736;9.092;2023-09-19T02:42:46;2.43;;;0.80;;
8913;SDS011;4492;48.736;9.092;2023-09-19T02:45:14;2.00;;;1.07;;
8913;SDS011;4492;48.736;9.092;2023-09-19T02:47:43;1.40;;;0.90;;
8913;SDS011;4492;48.736;9.092;2023-09-19T02:50:10;3.20;;;1.07;;
8913;SDS011;4492;48.736;9.092;2023-09-19T02:52:41;2.90;;;0.80;;
8913;SDS011;4492;48.736;9.092;2023-09-19T02:55:13;0.87;;;0.87;;
8913;SDS011;4492;48.736;9.092;2023-09-19T02:57:45;1.00;;;0.80;;
8913;SDS011;4492;48.736;9.092;2023-09-19T03:00:30;4.77;;;0.97;;
8913;SDS011;4492;48.736;9.092;2023-09-19T03:02:55;1.47;;;1.00;;
8913;SDS011;4492;48.736;9.092;2023-09-19T03:05:22;1.07;;;0.90;;
8913;SDS011;4492;48.736;9.092;2023-09-19T03:07:48;2.60;;;1.10;;
8913;SDS011;4492;48.736;9.092;2023-09-19T03:10:15;1.00;;;1.00;;
8913;SDS011;4492;48.736;9.092;2023-09-19T03:12:45;3.13;;;1.13;;
8913;SDS011;4492;48.736;9.092;2023-09-19T03:15:11;2.60;;;1.00;;
8913;SDS011;4492;48.736;9.092;2023-09-19T03:17:37;1.03;;;0.93;;
8913;SDS011;4492;48.736;9.092;2023-09-19T03:20:07;1.37;;;1.27;;
8913;SDS011;4492;48.736;9.092;2023-09-19T03:22:35;0.83;;;0.83;;
8913;SDS011;4492;48.736;9.092;2023-09-19T03:25:00;1.67;;;1.10;;
8913;SDS011;4492;48.736;9.092;2023-09-19T03:27:26;2.57;;;1.00;;
8913;SDS011;4492;48.736;9.092;2023-09-19T03:29:52;0.80;;;0.80;;
8913;SDS011;4492;48.736;9.092;2023-09-19T03:32:18;3.40;;;0.97;;
8913;SDS011;4492;48.736;9.092;2023-09-19T03:34:44;2.93;;;1.10;;
8913;SDS011;4492;48.736;9.092;2023-09-19T03:37:09;1.90;;;0.97;;
8913;SDS011;4492;48.736;9.092;2023-09-19T03:39:35;1.10;;;1.00;;
8913;SDS011;4492;48.736;9.092;2023-09-19T03:42:01;2.50;;;1.00;;
8913;SDS011;4492;48.736;9.092;2023-09-19T03:44:27;2.13;;;0.87;;
8913;SDS011;4492;48.736;9.092;2023-09-19T03:46:53;1.33;;;1.10;;
8913;SDS011;4492;48.736;9.092;2023-09-19T03:49:20;1.53;;;0.97;;
8913;SDS011;4492;48.736;9.092;2023-09-19T03:51:46;2.50;;;1.00;;
8913;SDS011;4492;48.736;9.092;2023-09-19T03:54:11;1.20;;;1.10;;
8913;SDS011;4492;48.736;9.092;2023-09-19T03:56:37;0.93;;;0.87;;
8913;SDS011;4492;48.736;9.092;2023-09-19T03:59:03;1.37;;;1.00;;
8913;SDS011;4492;48.736;9.092;2023-09-19T04:01:28;1.10;;;1.00;;
8913;SDS011;4492;48.736;9.092;2023-09-19T04:03:56;2.47;;;1.03;;
8913;SDS011;4492;48.736;9.092;2023-09-19T04:06:22;1.30;;;1.20;;
8913;SDS011;4492;48.736;9.092;2023-09-19T04:08:48;1.30;;;1.20;;
8913;SDS011;4492;48.736;9.092;2023-09-19T04:11:14;1.53;;;1.00;;
8913;SDS011;4492;48.736;9.092;2023-09-19T04:13:39;1.20;;;1.10;;
8913;SDS011;4492;48.736;9.092;2023-09-19T04:16:05;1.20;;;1.10;;
8913;SDS011;4492;48.736;9.092;2023-09-19T04:18:31;1.53;;;1.30;;
8913;SDS011;4492;48.736;9.092;2023-09-19T04:20:58;1.67;;;1.17;;
8913;SDS011;4492;48.736;9.092;2023-09-19T04:23:27;2.07;;;1.10;;
8913;SDS011;4492;48.736;9.092;2023-09-19T04:25:53;3.50;;;1.43;;
8913;SDS011;4492;48.736;9.092;2023-09-19T04:28:18;3.70;;;1.70;;
8913;SDS011;4492;48.736;9.092;2023-09-19T04:30:44;4.00;;;1.50;;
8913;SDS011;4492;48.736;9.092;2023-09-19T04:33:09;1.20;;;1.20;;
8913;SDS011;4492;48.736;9.092;2023-09-19T04:35:36;2.30;;;1.40;;
8913;SDS011;4492;48.736;9.092;2023-09-19T04:38:03;1.63;;;1.50;;
8913;SDS011;4492;48.736;9.092;2023-09-19T04:40:31;1.60;;;1.10;;
8913;SDS011;4492;48.736;9.092;2023-09-19T04:42:57;1.13;;;1.03;;
8913;SDS011;4492;48.736;9.092;2023-09-19T04:45:23;2.77;;;1.37;;
8913;SDS011;4492;48.736;9.092;2023-09-19T04:47:49;1.40;;;1.00;;
8913;SDS011;4492;48.736;9.092;2023-09-19T04:50:15;3.00;;;1.07;;
8913;SDS011;4492;48.736;9.092;2023-09-19T04:52:42;2.10;;;1.50;;
8913;SDS011;4492;48.736;9.092;2023-09-19T04:55:10;1.30;;;1.20;;
8913;SDS011;4492;48.736;9.092;2023-09-19T04:57:51;1.83;;;1.17;;
8913;SDS011;4492;48.736;9.092;2023-09-19T05:00:18;1.33;;;1.23;;
8913;SDS011;4492;48.736;9.092;2023-09-19T05:02:51;1.50;;;0.97;;
8913;SDS011;4492;48.736;9.092;2023-09-19T05:05:19;1.03;;;0.93;;
8913;SDS011;4492;48.736;9.092;2023-09-19T05:07:45;1.40;;;1.10;;
8913;SDS011;4492;48.736;9.092;2023-09-19T05:10:11;1.43;;;1.00;;
8913;SDS011;4492;48.736;9.092;2023-09-19T05:12:37;1.80;;;1.10;;
8913;SDS011;4492;48.736;9.092;2023-09-19T05:15:03;2.03;;;1.20;;
8913;SDS011;4492;48.736;9.092;2023-09-19T05:17:29;3.37;;;1.57;;
8913;SDS011;4492;48.736;9.092;2023-09-19T05:19:56;6.13;;;2.67;;
8913;SDS011;4492;48.736;9.092;2023-09-19T05:22:23;3.57;;;1.40;;
8913;SDS011;4492;48.736;9.092;2023-09-19T05:24:49;2.00;;;1.40;;
8913;SDS011;4492;48.736;9.092;2023-09-19T05:27:16;4.33;;;1.77;;
8913;SDS011;4492;48.736;9.092;2023-09-19T05:29:42;3.40;;;1.73;;
8913;SDS011;4492;48.736;9.092;2023-09-19T05:32:09;5.10;;;1.57;;
8913;SDS011;4492;48.736;9.092;2023-09-19T05:34:35;1.53;;;1.43;;
8913;SDS011;4492;48.736;9.092;2023-09-19T05:37:01;2.77;;;1.80;;
8913;SDS011;4492;48.736;9.092;2023-09-19T05:39:27;3.43;;;1.73;;
8913;SDS011;4492;48.736;9.092;2023-09-19T05:41:52;2.73;;;1.70;;
8913;SDS011;4492;48.736;9.092;2023-09-19T05:44:18;3.23;;;1.50;;
8913;SDS011;4492;48.736;9.092;2023-09-19T05:46:44;2.10;;;1.20;;
8913;SDS011;4492;48.736;9.092;2023-09-19T05:49:11;2.73;;;1.30;;
8913;SDS011;4492;48.736;9.092;2023-09-19T05:51:36;6.10;;;1.60;;
8913;SDS011;4492;48.736;9.092;2023-09-19T05:54:02;2.83;;;1.40;;
8913;SDS011;4492;48.736;9.092;2023-09-19T05:56:30;1.87;;;1.20;;
8913;SDS011;4492;48.736;9.092;2023-09-19T05:58:56;1.37;;;1.10;;
8913;SDS011;4492;48.736;9.092;2023-09-19T06:01:22;3.60;;;0.97;;
8913;SDS011;4492;48.736;9.092;2023-09-19T06:03:47;0.97;;;0.90;;
8913;SDS011;4492;48.736;9.092;2023-09-19T06:06:13;2.57;;;1.10;;
8913;SDS011;4492;48.736;9.092;2023-09-19T06:08:39;1.47;;;1.17;;
8913;SDS011;4492;48.736;9.092;2023-09-19T06:11:05;1.10;;;1.00;;
8913;SDS011;4492;48.736;9.092;2023-09-19T06:13:34;1.67;;;1.10;;
8913;SDS011;4492;48.736;9.092;2023-09-19T06:15:59;1.50;;;1.03;;
8913;SDS011;4492;48.736;9.092;2023-09-19T06:18:29;1.00;;;0.90;;
8913;SDS011;4492;48.736;9.092;2023-09-19T06:20:58;2.23;;;1.17;;
8913;SDS011;4492;48.736;9.092;2023-09-19T06:23:24;3.80;;;1.33;;
8913;SDS011;4492;48.736;9.092;2023-09-19T06:25:52;1.50;;;1.27;;
8913;SDS011;4492;48.736;9.092;2023-09-19T06:28:18;2.70;;;1.40;;
8913;SDS011;4492;48.736;9.092;2023-09-19T06:30:48;1.77;;;1.40;;
8913;SDS011;4492;48.736;9.092;2023-09-19T06:33:14;1.40;;;1.30;;
8913;SDS011;4492;48.736;9.092;2023-09-19T06:35:40;1.40;;;1.30;;
8913;SDS011;4492;48.736;9.092;2023-09-19T06:38:07;4.33;;;1.73;;
8913;SDS011;4492;48.736;9.092;2023-09-19T06:40:33;1.80;;;1.70;;
8913;SDS011;4492;48.736;9.092;2023-09-19T06:42:59;2.97;;;1.40;;
8913;SDS011;4492;48.736;9.092;2023-09-19T06:45:26;1.87;;;1.17;;
8913;SDS011;4492;48.736;9.092;2023-09-19T06:47:52;1.83;;;1.57;;
8913;SDS011;4492;48.736;9.092;2023-09-19T06:50:22;1.50;;;1.40;;
8913;SDS011;4492;48.736;9.092;2023-09-19T06:52:49;4.50;;;1.40;;
8913;SDS011;4492;48.736;9.092;2023-09-19T06:55:16;2.53;;;1.60;;
8913;SDS011;4492;48.736;9.092;2023-09-19T06:57:44;7.43;;;2.30;;
8913;SDS011;4492;48.736;9.092;2023-09-19T07:00:10;3.20;;;1.90;;
8913;SDS011;4492;48.736;9.092;2023-09-19T07:02:59;2.87;;;1.30;;
8913;SDS011;4492;48.736;9.092;2023-09-19T07:05:28;2.20;;;1.60;;
8913;SDS011;4492;48.736;9.092;2023-09-19T07:07:56;1.87;;;1.60;;
8913;SDS011;4492;48.736;9.092;2023-09-19T07:10:24;2.80;;;1.80;;
8913;SDS011;4492;48.736;9.092;2023-09-19T07:12:57;5.33;;;2.27;;
8913;SDS011;4492;48.736;9.092;2023-09-19T07:15:27;6.97;;;2.53;;
8913;SDS011;4492;48.736;9.092;2023-09-19T07:17:55;4.37;;;1.70;;
8913;SDS011;4492;48.736;9.092;2023-09-19T07:20:21;3.60;;;1.90;;
8913;SDS011;4492;48.736;9.092;2023-09-19T07:22:50;3.07;;;1.77;;
8913;SDS011;4492;48.736;9.092;2023-09-19T07:25:16;1.53;;;1.43;;
8913;SDS011;4492;48.736;9.092;2023-09-19T07:27:42;2.27;;;1.43;;
8913;SDS011;4492;48.736;9.092;2023-09-19T07:30:08;3.10;;;1.70;;
8913;SDS011;4492;48.736;9.092;2023-09-19T07:32:34;4.10;;;1.40;;
8913;SDS011;4492;48.736;9.092;2023-09-19T07:35:03;7.03;;;1.57;;
8913;SDS011;4492;48.736;9.092;2023-09-19T07:37:32;1.80;;;1.17;;
8913;SDS011;4492;48.736;9.092;2023-09-19T07:39:59;2.07;;;1.70;;
8913;SDS011;4492;48.736;9.092;2023-09-19T07:42:34;1.20;;;1.10;;
8913;SDS011;4492;48.736;9.092;2023-09-19T07:45:01;3.20;;;1.37;;
8913;SDS011;4492;48.736;9.092;2023-09-19T07:47:28;1.30;;;1.07;;
8913;SDS011;4492;48.736;9.092;2023-09-19T07:49:55;1.93;;;1.40;;
8913;SDS011;4492;48.736;9.092;2023-09-19T07:52:20;2.70;;;1.40;;
8913;SDS011;4492;48.736;9.092;2023-09-19T07:54:47;2.47;;;1.30;;
8913;SDS011;4492;48.736;9.092;2023-09-19T07:57:14;1.77;;;1.20;;
8913;SDS011;4492;48.736;9.092;2023-09-19T07:59:40;3.63;;;1.10;;
8913;SDS011;4492;48.736;9.092;2023-09-19T08:02:07;3.43;;;1.30;;
8913;SDS011;4492;48.736;9.092;2023-09-19T08:04:34;1.20;;;1.10;;
8913;SDS011;4492;48.736;9.092;2023-09-19T08:07:00;1.30;;;1.20;;
8913;SDS011;4492;48.736;9.092;2023-09-19T08:09:28;1.97;;;1.20;;
8913;SDS011;4492;48.736;9.092;2023-09-19T08:11:58;1.57;;;1.20;;
8913;SDS011;4492;48.736;9.092;2023-09-19T08:14:24;1.63;;;1.10;;
8913;SDS011;4492;48.736;9.092;2023-09-19T08:16:51;1.30;;;1.17;;
8913;SDS011;4492;48.736;9.092;2023-09-19T08:19:16;1.13;;;0.90;;
8913;SDS011;4492;48.736;9.092;2023-09-19T08:21:41;4.33;;;1.10;;
8913;SDS011;4492;48.736;9.092;2023-09-19T08:24:11;2.50;;;1.00;;
8913;SDS011;4492;48.736;9.092;2023-09-19T08:26:37;1.30;;;1.10;;
8913;SDS011;4492;48.736;9.092;2023-09-19T08:29:02;1.77;;;1.00;;
8913;SDS011;4492;48.736;9.092;2023-09-19T08:31:29;1.57;;;1.00;;
8913;SDS011;4492;48.736;9.092;2023-09-19T08:33:55;1.80;;;1.17;;
8913;SDS011;4492;48.736;9.092;2023-09-19T08:36:21;1.17;;;1.07;;
8913;SDS011;4492;48.736;9.092;2023-09-19T08:38:47;2.73;;;0.90;;
8913;SDS011;4492;48.736;9.092;2023-09-19T08:41:14;1.33;;;1.00;;
8913;SDS011;4492;48.736;9.092;2023-09-19T08:43:42;1.47;;;1.10;;
8913;SDS011;4492;48.736;9.092;2023-09-19T08:46:11;2.00;;;1.20;;
8913;SDS011;4492;48.736;9.092;2023-09-19T08:51:36;1.13;;;1.10;;
8913;SDS011;4492;48.736;9.092;2023-09-19T08:54:09;2.80;;;1.20;;
8913;SDS011;4492;48.736;9.092;2023-09-19T08:56:47;2.03;;;1.20;;
8913;SDS011;4492;48.736;9.092;2023-09-19T08:59:14;1.60;;;1.10;;
8913;SDS011;4492;48.736;9.092;2023-09-19T09:01:42;1.87;;;1.10;;
8913;SDS011;4492;48.736;9.092;2023-09-19T09:04:08;1.60;;;1.30;;
8913;SDS011;4492;48.736;9.092;2023-09-19T09:06:37;2.33;;;1.30;;
8913;SDS011;4492;48.736;9.092;2023-09-19T09:09:04;1.43;;;0.90;;
8913;SDS011;4492;48.736;9.092;2023-09-19T09:11:30;3.03;;;1.60;;
8913;SDS011;4492;48.736;9.092;2023-09-19T09:13:58;2.07;;;1.30;;
8913;SDS011;4492;48.736;9.092;2023-09-19T09:16:23;1.40;;;1.17;;
8913;SDS011;4492;48.736;9.092;2023-09-19T09:18:51;2.10;;;1.03;;
8913;SDS011;4492;48.736;9.092;2023-09-19T09:21:17;1.60;;;1.30;;
8913;SDS011;4492;48.736;9.092;2023-09-19T09:23:43;1.83;;;0.93;;
8913;SDS011;4492;48.736;9.092;2023-09-19T09:26:09;1.37;;;1.27;;
8913;SDS011;4492;48.736;9.092;2023-09-19T09:28:35;1.53;;;1.40;;
8913;SDS011;4492;48.736;9.092;2023-09-19T09:31:12;1.67;;;1.10;;
8913;SDS011;4492;48.736;9.092;2023-09-19T09:33:54;1.80;;;1.40;;
8913;SDS011;4492;48.736;9.092;2023-09-19T09:36:37;3.40;;;1.23;;
8913;SDS011;4492;48.736;9.092;2023-09-19T09:39:06;2.40;;;1.20;;
8913;SDS011;4492;48.736;9.092;2023-09-19T09:41:41;1.70;;;1.10;;
8913;SDS011;4492;48.736;9.092;2023-09-19T09:44:15;1.40;;;1.10;;
8913;SDS011;4492;48.736;9.092;2023-09-19T09:46:46;2.87;;;1.17;;
8913;SDS011;4492;48.736;9.092;2023-09-19T09:49:24;1.27;;;1.03;;
8913;SDS011;4492;48.736;9.092;2023-09-19T09:52:04;1.73;;;1.13;;
8913;SDS011;4492;48.736;9.092;2023-09-19T09:54:32;2.70;;;1.10;;
8913;SDS011;4492;48.736;9.092;2023-09-19T09:57:01;1.97;;;1.10;;
8913;SDS011;4492;48.736;9.092;2023-09-19T09:59:52;1.37;;;1.27;;
8913;SDS011;4492;48.736;9.092;2023-09-19T10:02:20;1.97;;;1.43;;
8913;SDS011;4492;48.736;9.092;2023-09-19T10:04:52;1.40;;;1.07;;
8913;SDS011;4492;48.736;9.092;2023-09-19T10:07:44;3.10;;;1.43;;
8913;SDS011;4492;48.736;9.092;2023-09-19T10:10:34;2.30;;;1.20;;
8913;SDS011;4492;48.736;9.092;2023-09-19T10:13:06;1.23;;;1.13;;
8913;SDS011;4492;48.736;9.092;2023-09-19T10:15:32;3.53;;;1.30;;
8913;SDS011;4492;48.736;9.092;2023-09-19T10:18:00;1.60;;;1.00;;
8913;SDS011;4492;48.736;9.092;2023-09-19T10:20:26;1.50;;;1.20;;
8913;SDS011;4492;48.736;9.092;2023-09-19T10:23:05;2.73;;;1.17;;
8913;SDS011;4492;48.736;9.092;2023-09-19T10:25:36;2.03;;;1.10;;
8913;SDS011;4492;48.736;9.092;2023-09-19T10:28:05;0.87;;;0.77;;
8913;SDS011;4492;48.736;9.092;2023-09-19T10:30:36;1.47;;;1.00;;
8913;SDS011;4492;48.736;9.092;2023-09-19T10:33:12;1.17;;;1.07;;
8913;SDS011;4492;48.736;9.092;2023-09-19T10:35:41;1.13;;;1.07;;
8913;SDS011;4492;48.736;9.092;2023-09-19T10:38:13;0.90;;;0.90;;
8913;SDS011;4492;48.736;9.092;2023-09-19T10:40:42;1.30;;;1.20;;
8913;SDS011;4492;48.736;9.092;2023-09-19T10:43:16;0.93;;;0.90;;
8913;SDS011;4492;48.736;9.092;2023-09-19T10:45:43;1.37;;;1.00;;
8913;SDS011;4492;48.736;9.092;2023-09-19T10:48:14;0.97;;;0.93;;
8913;SDS011;4492;48.736;9.092;2023-09-19T10:51:06;1.70;;;0.90;;
8913;SDS011;4492;48.736;9.092;2023-09-19T10:53:52;2.47;;;1.17;;
8913;SDS011;4492;48.736;9.092;2023-09-19T10:56:26;1.70;;;1.00;;
8913;SDS011;4492;48.736;9.092;2023-09-19T10:59:08;2.17;;;1.00;;
8913;SDS011;4492;48.736;9.092;2023-09-19T11:04:31;3.17;;;1.40;;
8913;SDS011;4492;48.736;9.092;2023-09-19T11:07:05;1.63;;;0.90;;
8913;SDS011;4492;48.736;9.092;2023-09-19T11:12:10;1.67;;;0.97;;
8913;SDS011;4492;48.736;9.092;2023-09-19T11:14:37;1.10;;;1.00;;
8913;SDS011;4492;48.736;9.092;2023-09-19T11:30:37;1.00;;;0.90;;
8913;SDS011;4492;48.736;9.092;2023-09-19T11:46:31;1.77;;;1.00;;
8913;SDS011;4492;48.736;9.092;2023-09-19T11:49:05;2.30;;;1.10;;
8913;SDS011;4492;48.736;9.092;2023-09-19T11:51:54;1.40;;;1.10;;
8913;SDS011;4492;48.736;9.092;2023-09-19T11:54:21;2.73;;;1.10;;
8913;SDS011;4492;48.736;9.092;2023-09-19T11:56:55;1.33;;;0.83;;
8913;SDS011;4492;48.736;9.092;2023-09-19T11:59:23;1.70;;;0.93;;
8913;SDS011;4492;48.736;9.092;2023-09-19T12:02:03;1.27;;;1.00;;
8913;SDS011;4492;48.736;9.092;2023-09-19T12:07:03;2.03;;;0.97;;
8913;SDS011;4492;48.736;9.092;2023-09-19T12:09:47;1.30;;;0.90;;
8913;SDS011;4492;48.736;9.092;2023-09-19T12:12:25;1.00;;;0.80;;
8913;SDS011;4492;48.736;9.092;2023-09-19T12:14:55;1.10;;;0.80;;
8913;SDS011;4492;48.736;9.092;2023-09-19T12:17:23;0.80;;;0.80;;
8913;SDS011;4492;48.736;9.092;2023-09-19T12:19:53;2.07;;;1.17;;
8913;SDS011;4492;48.736;9.092;2023-09-19T12:22:20;2.27;;;0.93;;
8913;SDS011;4492;48.736;9.092;2023-09-19T12:24:46;6.53;;;1.27;;
8913;SDS011;4492;48.736;9.092;2023-09-19T12:27:12;3.63;;;0.90;;
8913;SDS011;4492;48.736;9.092;2023-09-19T12:29:45;2.20;;;1.27;;
8913;SDS011;4492;48.736;9.092;2023-09-19T12:32:13;1.07;;;0.93;;
8913;SDS011;4492;48.736;9.092;2023-09-19T12:34:41;1.13;;;1.07;;
8913;SDS011;4492;48.736;9.092;2023-09-19T12:37:11;1.83;;;1.10;;
8913;SDS011;4492;48.736;9.092;2023-09-19T12:39:40;1.07;;;0.83;;
8913;SDS011;4492;48.736;9.092;2023-09-19T12:42:21;1.17;;;1.17;;
8913;SDS011;4492;48.736;9.092;2023-09-19T12:44:49;3.57;;;0.83;;
8913;SDS011;4492;48.736;9.092;2023-09-19T12:47:22;1.80;;;0.97;;
8913;SDS011;4492;48.736;9.092;2023-09-19T12:52:38;3.40;;;1.17;;
8913;SDS011;4492;48.736;9.092;2023-09-19T12:55:06;3.03;;;1.13;;
8913;SDS011;4492;48.736;9.092;2023-09-19T12:57:35;1.63;;;1.10;;
8913;SDS011;4492;48.736;9.092;2023-09-19T13:00:01;1.43;;;1.30;;
8913;SDS011;4492;48.736;9.092;2023-09-19T13:02:30;1.23;;;1.00;;
8913;SDS011;4492;48.736;9.092;2023-09-19T13:04:56;2.47;;;1.17;;
8913;SDS011;4492;48.736;9.092;2023-09-19T13:07:43;3.20;;;1.10;;
8913;SDS011;4492;48.736;9.092;2023-09-19T13:10:11;1.27;;;1.10;;
8913;SDS011;4492;48.736;9.092;2023-09-19T13:12:40;2.20;;;1.10;;
8913;SDS011;4492;48.736;9.092;2023-09-19T13:15:11;5.03;;;1.20;;
8913;SDS011;4492;48.736;9.092;2023-09-19T13:17:48;2.33;;;1.20;;
8913;SDS011;4492;48.736;9.092;2023-09-19T13:20:21;1.73;;;1.20;;
8913;SDS011;4492;48.736;9.092;2023-09-19T13:22:54;1.97;;;1.30;;
8913;SDS011;4492;48.736;9.092;2023-09-19T13:25:23;1.40;;;1.10;;
8913;SDS011;4492;48.736;9.092;2023-09-19T13:27:50;2.20;;;1.30;;
8913;SDS011;4492;48.736;9.092;2023-09-19T13:30:19;1.83;;;1.63;;
8913;SDS011;4492;48.736;9.092;2023-09-19T13:32:45;1.20;;;1.10;;
8913;SDS011;4492;48.736;9.092;2023-09-19T13:35:12;1.30;;;1.20;;
8913;SDS011;4492;48.736;9.092;2023-09-19T13:37:39;1.17;;;1.07;;
8913;SDS011;4492;48.736;9.092;2023-09-19T13:40:08;1.17;;;0.83;;
8913;SDS011;4492;48.736;9.092;2023-09-19T13:42:35;1.30;;;0.90;;
8913;SDS011;4492;48.736;9.092;2023-09-19T13:45:02;1.53;;;1.00;;
8913;SDS011;4492;48.736;9.092;2023-09-19T13:47:31;1.63;;;0.93;;
8913;SDS011;4492;48.736;9.092;2023-09-19T13:49:57;1.67;;;1.10;;
8913;SDS011;4492;48.736;9.092;2023-09-19T13:52:24;1.77;;;1.27;;
8913;SDS011;4492;48.736;9.092;2023-09-19T13:54:53;1.30;;;1.20;;
8913;SDS011;4492;48.736;9.092;2023-09-19T13:57:19;0.80;;;0.80;;
8913;SDS011;4492;48.736;9.092;2023-09-19T13:59:44;1.13;;;1.00;;
8913;SDS011;4492;48.736;9.092;2023-09-19T14:02:09;1.37;;;1.10;;
8913;SDS011;4492;48.736;9.092;2023-09-19T14:04:35;2.20;;;1.10;;
8913;SDS011;4492;48.736;9.092;2023-09-19T14:07:01;1.47;;;1.37;;
8913;SDS011;4492;48.736;9.092;2023-09-19T14:09:27;1.07;;;0.97;;
8913;SDS011;4492;48.736;9.092;2023-09-19T14:11:52;1.93;;;1.03;;
8913;SDS011;4492;48.736;9.092;2023-09-19T14:14:21;1.27;;;1.23;;
8913;SDS011;4492;48.736;9.092;2023-09-19T14:16:47;2.20;;;1.20;;
8913;SDS011;4492;48.736;9.092;2023-09-19T14:19:13;1.40;;;1.10;;
8913;SDS011;4492;48.736;9.092;2023-09-19T14:21:41;1.27;;;1.07;;
8913;SDS011;4492;48.736;9.092;2023-09-19T14:24:07;1.23;;;1.07;;
8913;SDS011;4492;48.736;9.092;2023-09-19T14:26:36;0.90;;;0.90;;
8913;SDS011;4492;48.736;9.092;2023-09-19T14:29:02;1.37;;;1.23;;
8913;SDS011;4492;48.736;9.092;2023-09-19T14:31:28;0.83;;;0.83;;
8913;SDS011;4492;48.736;9.092;2023-09-19T14:33:54;1.20;;;1.10;;
8913;SDS011;4492;48.736;9.092;2023-09-19T14:36:24;1.20;;;1.10;;
8913;SDS011;4492;48.736;9.092;2023-09-19T14:38:52;2.63;;;1.10;;
8913;SDS011;4492;48.736;9.092;2023-09-19T14:41:22;1.07;;;0.97;;
8913;SDS011;4492;48.736;9.092;2023-09-19T14:43:47;1.40;;;0.93;;
8913;SDS011;4492;48.736;9.092;2023-09-19T14:46:13;1.17;;;1.10;;
8913;SDS011;4492;48.736;9.092;2023-09-19T14:48:39;1.80;;;1.33;;
8913;SDS011;4492;48.736;9.092;2023-09-19T14:51:05;2.07;;;1.07;;
8913;SDS011;4492;48.736;9.092;2023-09-19T14:53:34;1.20;;;1.00;;
8913;SDS011;4492;48.736;9.092;2023-09-19T14:56:07;1.87;;;1.23;;
8913;SDS011;4492;48.736;9.092;2023-09-19T14:58:33;1.33;;;1.23;;
8913;SDS011;4492;48.736;9.092;2023-09-19T15:01:06;1.17;;;0.97;;
8913;SDS011;4492;48.736;9.092;2023-09-19T15:03:35;1.50;;;1.17;;
8913;SDS011;4492;48.736;9.092;2023-09-19T15:06:02;2.90;;;1.40;;
8913;SDS011;4492;48.736;9.092;2023-09-19T15:08:32;1.07;;;0.90;;
8913;SDS011;4492;48.736;9.092;2023-09-19T15:11:00;1.07;;;0.80;;
8913;SDS011;4492;48.736;9.092;2023-09-19T15:13:35;1.07;;;1.00;;
8913;SDS011;4492;48.736;9.092;2023-09-19T15:16:02;1.47;;;0.90;;
8913;SDS011;4492;48.736;9.092;2023-09-19T15:18:29;0.90;;;0.80;;
8913;SDS011;4492;48.736;9.092;2023-09-19T15:20:55;2.67;;;1.40;;
8913;SDS011;4492;48.736;9.092;2023-09-19T15:23:21;1.07;;;1.00;;
8913;SDS011;4492;48.736;9.092;2023-09-19T15:25:48;1.40;;;1.07;;
8913;SDS011;4492;48.736;9.092;2023-09-19T15:28:14;1.00;;;1.00;;
8913;SDS011;4492;48.736;9.092;2023-09-19T15:30:40;1.70;;;1.20;;
8913;SDS011;4492;48.736;9.092;2023-09-19T15:33:05;2.73;;;0.90;;
8913;SDS011;4492;48.736;9.092;2023-09-19T15:35:31;1.10;;;1.00;;
8913;SDS011;4492;48.736;9.092;2023-09-19T15:37:57;1.07;;;0.90;;
8913;SDS011;4492;48.736;9.092;2023-09-19T15:40:24;1.57;;;1.10;;
8913;SDS011;4492;48.736;9.092;2023-09-19T15:42:50;1.00;;;0.90;;
8913;SDS011;4492;48.736;9.092;2023-09-19T15:45:16;1.70;;;0.90;;
8913;SDS011;4492;48.736;9.092;2023-09-19T15:47:44;1.20;;;1.00;;
8913;SDS011;4492;48.736;9.092;2023-09-19T15:50:10;1.43;;;1.17;;
8913;SDS011;4492;48.736;9.092;2023-09-19T15:52:39;1.70;;;0.83;;
8913;SDS011;4492;48.736;9.092;2023-09-19T15:55:05;0.93;;;0.93;;
8913;SDS011;4492;48.736;9.092;2023-09-19T15:57:31;1.20;;;0.90;;
8913;SDS011;4492;48.736;9.092;2023-09-19T15:59:59;1.73;;;1.03;;
8913;SDS011;4492;48.736;9.092;2023-09-19T16:02:25;1.97;;;1.30;;
8913;SDS011;4492;48.736;9.092;2023-09-19T16:04:51;4.70;;;1.60;;
8913;SDS011;4492;48.736;9.092;2023-09-19T16:07:19;1.50;;;1.00;;
8913;SDS011;4492;48.736;9.092;2023-09-19T16:09:44;0.70;;;0.70;;
8913;SDS011;4492;48.736;9.092;2023-09-19T16:12:10;1.50;;;0.90;;
8913;SDS011;4492;48.736;9.092;2023-09-19T16:14:36;1.30;;;0.93;;
8913;SDS011;4492;48.736;9.092;2023-09-19T16:17:02;1.20;;;0.90;;
8913;SDS011;4492;48.736;9.092;2023-09-19T16:19:28;1.00;;;0.80;;